Map

Track Data

SID SEASON NUMBER BASIN SUBBASIN NAME ISO_TIME NATURE LAT LON WMO_WIND WMO_PRES WMO_AGENCY TRACK_TYPE DIST2LAND LANDFALL IFLAG USA_AGENCY USA_ATCF_ID USA_LAT USA_LON USA_RECORD USA_STATUS USA_WIND USA_PRES USA_SSHS USA_R34_NE USA_R34_SE USA_R34_SW USA_R34_NW USA_R50_NE USA_R50_SE USA_R50_SW USA_R50_NW USA_R64_NE USA_R64_SE USA_R64_SW USA_R64_NW USA_POCI USA_ROCI USA_RMW USA_EYE TOKYO_LAT TOKYO_LON TOKYO_GRADE TOKYO_WIND TOKYO_PRES TOKYO_R50_DIR TOKYO_R50_LONG TOKYO_R50_SHORT TOKYO_R30_DIR TOKYO_R30_LONG TOKYO_R30_SHORT TOKYO_LAND CMA_LAT CMA_LON CMA_CAT CMA_WIND CMA_PRES HKO_LAT HKO_LON HKO_CAT HKO_WIND HKO_PRES NEWDELHI_LAT NEWDELHI_LON NEWDELHI_GRADE NEWDELHI_WIND NEWDELHI_PRES NEWDELHI_CI NEWDELHI_DP NEWDELHI_POCI REUNION_LAT REUNION_LON REUNION_TYPE REUNION_WIND REUNION_PRES REUNION_TNUM REUNION_CI REUNION_RMW REUNION_R34_NE REUNION_R34_SE REUNION_R34_SW REUNION_R34_NW REUNION_R50_NE REUNION_R50_SE REUNION_R50_SW REUNION_R50_NW REUNION_R64_NE REUNION_R64_SE REUNION_R64_SW REUNION_R64_NW BOM_LAT BOM_LON BOM_TYPE BOM_WIND BOM_PRES BOM_TNUM BOM_CI BOM_RMW BOM_R34_NE BOM_R34_SE BOM_R34_SW BOM_R34_NW BOM_R50_NE BOM_R50_SE BOM_R50_SW BOM_R50_NW BOM_R64_NE BOM_R64_SE BOM_R64_SW BOM_R64_NW BOM_ROCI BOM_POCI BOM_EYE BOM_POS_METHOD BOM_PRES_METHOD NADI_LAT NADI_LON NADI_CAT NADI_WIND NADI_PRES WELLINGTON_LAT WELLINGTON_LON WELLINGTON_WIND WELLINGTON_PRES DS824_LAT DS824_LON DS824_STAGE DS824_WIND DS824_PRES TD9636_LAT TD9636_LON TD9636_STAGE TD9636_WIND TD9636_PRES TD9635_LAT TD9635_LON TD9635_WIND TD9635_PRES TD9635_ROCI NEUMANN_LAT NEUMANN_LON NEUMANN_CLASS NEUMANN_WIND NEUMANN_PRES MLC_LAT MLC_LON MLC_CLASS MLC_WIND MLC_PRES USA_GUST BOM_GUST BOM_GUST_PER REUNION_GUST REUNION_GUST_PER USA_SEAHGT USA_SEARAD_NE USA_SEARAD_SE USA_SEARAD_SW USA_SEARAD_NW STORM_SPEED STORM_DIR
1890249N17116 1890 26 WP MM NOT_NAMED 1890-09-05 16:00:00 NR 17.1000 116.400 main 372 372 __________O___ -1 17.1000 116.400 7 2 264
1890249N17116 1890 26 WP MM NOT_NAMED 1890-09-05 18:00:00 NR 17.0922 116.314 main 382 382 __________P___ -1 17.0922 116.314 7 3 266
1890249N17116 1890 26 WP MM NOT_NAMED 1890-09-05 21:00:00 NR 17.0834 116.168 main 392 392 __________P___ -1 17.0834 116.168 7 3 268
1890249N17116 1890 26 WP MM NOT_NAMED 1890-09-06 00:00:00 NR 17.0822 115.975 main 413 413 __________P___ -1 17.0822 115.975 7 4 271
1890249N17116 1890 26 WP MM NOT_NAMED 1890-09-06 03:00:00 NR 17.0930 115.710 main 443 443 __________P___ -1 17.0930 115.710 7 5 273
1890249N17116 1890 26 WP MM NOT_NAMED 1890-09-06 04:00:00 NR 17.1000 115.600 main 454 454 __________O___ -1 17.1000 115.600 3 7 274
1890249N17116 1890 26 WP MM NOT_NAMED 1890-09-06 06:00:00 NR 17.1197 115.347 main 484 484 __________P___ -1 17.1197 115.347 3 8 275
1890249N17116 1890 26 WP MM NOT_NAMED 1890-09-06 09:00:00 NR 17.1615 114.903 main 491 448 __________P___ -1 17.1615 114.903 3 9 276
1890249N17116 1890 26 WP MM NOT_NAMED 1890-09-06 12:00:00 NR 17.2152 114.423 main 448 396 __________P___ -1 17.2152 114.423 3 9 277
1890249N17116 1890 26 WP MM NOT_NAMED 1890-09-06 15:00:00 NR 17.2777 113.949 main 396 387 __________P___ -1 17.2777 113.949 3 9 278
1890249N17116 1890 26 WP MM NOT_NAMED 1890-09-06 16:00:00 NR 17.3000 113.800 main 387 358 __________O___ -1 17.3000 113.800 4 8 280
1890249N17116 1890 26 WP MM NOT_NAMED 1890-09-06 18:00:00 NR 17.3466 113.541 main 358 325 __________P___ -1 17.3466 113.541 4 7 282
1890249N17116 1890 26 WP MM NOT_NAMED 1890-09-06 21:00:00 NR 17.4231 113.178 main 325 283 __________P___ -1 17.4231 113.178 4 7 283
1890249N17116 1890 26 WP MM NOT_NAMED 1890-09-07 00:00:00 NR 17.5020 112.837 main 283 250 __________P___ -1 17.5020 112.837 4 7 284
1890249N17116 1890 26 WP MM NOT_NAMED 1890-09-07 03:00:00 NR 17.5770 112.508 main 250 241 __________P___ -1 17.5770 112.508 4 6 283
1890249N17116 1890 26 WP MM NOT_NAMED 1890-09-07 04:00:00 NR 17.6000 112.400 main 241 224 __________O___ -1 17.6000 112.400 4 6 281
1890249N17116 1890 26 WP MM NOT_NAMED 1890-09-07 06:00:00 NR 17.6415 112.175 main 224 184 __________P___ -1 17.6415 112.175 4 6 280
1890249N17116 1890 26 WP MM NOT_NAMED 1890-09-07 09:00:00 NR 17.6977 111.844 main 184 161 __________P___ -1 17.6977 111.844 4 6 280
1890249N17116 1890 26 WP MM NOT_NAMED 1890-09-07 12:00:00 NR 17.7465 111.520 main 161 131 __________P___ -1 17.7465 111.520 4 6 278
1890249N17116 1890 26 WP MM NOT_NAMED 1890-09-07 15:00:00 NR 17.7879 111.204 main 131 124 __________P___ -1 17.7879 111.204 4 6 278
1890249N17116 1890 26 WP MM NOT_NAMED 1890-09-07 16:00:00 NR 17.8000 111.100 main 124 113 __________O___ -1 17.8000 111.100 4 6 277
1890249N17116 1890 26 WP MM NOT_NAMED 1890-09-07 18:00:00 NR 17.8222 110.899 main 113 92 __________P___ -1 17.8222 110.899 4 6 276
1890249N17116 1890 26 WP MM NOT_NAMED 1890-09-07 21:00:00 NR 17.8492 110.605 main 92 64 __________P___ -1 17.8492 110.605 4 6 275
1890249N17116 1890 26 WP MM NOT_NAMED 1890-09-08 00:00:00 NR 17.8717 110.310 main 64 46 __________P___ -1 17.8717 110.310 4 6 274
1890249N17116 1890 26 WP MM NOT_NAMED 1890-09-08 03:00:00 NR 17.8928 110.005 main 46 39 __________P___ -1 17.8928 110.005 4 6 274
1890249N17116 1890 26 WP MM NOT_NAMED 1890-09-08 04:00:00 NR 17.9000 109.900 main 39 33 __________O___ -1 17.9000 109.900 4 6 274
1890249N17116 1890 26 WP MM NOT_NAMED 1890-09-08 06:00:00 NR 17.9166 109.678 main 33 33 __________P___ -1 17.9166 109.678 4 7 274
1890249N17116 1890 26 WP MM NOT_NAMED 1890-09-08 09:00:00 NR 17.9416 109.333 main 39 38 __________P___ -1 17.9416 109.333 4 7 274
1890249N17116 1890 26 WP MM NOT_NAMED 1890-09-08 12:00:00 NR 17.9666 108.978 main 44 44 __________P___ -1 17.9666 108.978 4 7 274
1890249N17116 1890 26 WP MM NOT_NAMED 1890-09-08 15:00:00 NR 17.9916 108.619 main 56 56 __________P___ -1 17.9916 108.619 4 7 274
1890249N17116 1890 26 WP MM NOT_NAMED 1890-09-08 16:00:00 NR 18.0000 108.500 main 59 59 __________O___ -1 18.0000 108.500 7 7 274
1890249N17116 1890 26 WP MM NOT_NAMED 1890-09-08 18:00:00 NR 18.0168 108.263 main 70 76 __________P___ -1 18.0168 108.263 7 7 274
1890249N17116 1890 26 WP MM NOT_NAMED 1890-09-08 21:00:00 NR 18.0420 107.912 main 101 101 __________P___ -1 18.0420 107.912 7 7 274
1890249N17116 1890 26 WP MM NOT_NAMED 1890-09-09 00:00:00 NR 18.0671 107.563 main 118 77 __________P___ -1 18.0671 107.563 7 7 274
1890249N17116 1890 26 WP MM NOT_NAMED 1890-09-09 03:00:00 NR 18.0919 107.216 main 77 67 __________P___ -1 18.0919 107.216 7 7 274
1890249N17116 1890 26 WP MM NOT_NAMED 1890-09-09 04:00:00 NR 18.1000 107.100 main 67 __________O___ -1 18.1000 107.100 7 7 274

Digital Typhoon Data and Search

About IBTrACS Database

This database is a web-friendly format of International Best Track Archive for Climate Stewardship (IBTrACS), a global best track data archive curated by NOAA dating back to 1842.

Updated: 2021-10-25